sensor_id;sensor_type;location;lat;lon;timestamp;pressure;altitude;pressure_sealevel;temperature
77331;BMP280;66405;48.328;7.820;2023-06-01T00:02:23;99986.09;;;17.92
77331;BMP280;66405;48.328;7.820;2023-06-01T00:05:24;99989.56;;;17.87
77331;BMP280;66405;48.328;7.820;2023-06-01T00:08:24;99991.00;;;17.82
77331;BMP280;66405;48.328;7.820;2023-06-01T00:11:25;99991.03;;;17.76
77331;BMP280;66405;48.328;7.820;2023-06-01T00:14:26;99988.53;;;17.73
77331;BMP280;66405;48.328;7.820;2023-06-01T00:17:26;99985.06;;;17.67
77331;BMP280;66405;48.328;7.820;2023-06-01T00:20:29;99994.22;;;17.64
77331;BMP280;66405;48.328;7.820;2023-06-01T00:23:29;99984.31;;;17.61
77331;BMP280;66405;48.328;7.820;2023-06-01T00:26:30;99982.53;;;17.57
77331;BMP280;66405;48.328;7.820;2023-06-01T00:29:33;99985.03;;;17.55
77331;BMP280;66405;48.328;7.820;2023-06-01T00:32:33;99982.53;;;17.52
77331;BMP280;66405;48.328;7.820;2023-06-01T00:35:34;99983.03;;;17.50
77331;BMP280;66405;48.328;7.820;2023-06-01T00:38:34;99993.69;;;17.48
77331;BMP280;66405;48.328;7.820;2023-06-01T00:41:35;99986.47;;;17.45
77331;BMP280;66405;48.328;7.820;2023-06-01T00:44:36;99977.28;;;17.43
77331;BMP280;66405;48.328;7.820;2023-06-01T00:47:40;99986.00;;;17.41
77331;BMP280;66405;48.328;7.820;2023-06-01T00:50:42;99978.28;;;17.39
77331;BMP280;66405;48.328;7.820;2023-06-01T00:53:42;99983.25;;;17.35
77331;BMP280;66405;48.328;7.820;2023-06-01T00:56:44;99977.50;;;17.33
77331;BMP280;66405;48.328;7.820;2023-06-01T00:59:45;99974.25;;;17.29
77331;BMP280;66405;48.328;7.820;2023-06-01T01:02:46;99983.69;;;17.28
77331;BMP280;66405;48.328;7.820;2023-06-01T01:05:48;99978.00;;;17.26
77331;BMP280;66405;48.328;7.820;2023-06-01T01:09:14;99974.22;;;17.23
77331;BMP280;66405;48.328;7.820;2023-06-01T01:12:55;99975.72;;;17.19
77331;BMP280;66405;48.328;7.820;2023-06-01T01:19:23;99977.19;;;17.09
77331;BMP280;66405;48.328;7.820;2023-06-01T01:29:00;99971.38;;;16.90
77331;BMP280;66405;48.328;7.820;2023-06-01T01:32:03;99970.09;;;16.85
77331;BMP280;66405;48.328;7.820;2023-06-01T01:35:07;99979.22;;;16.76
77331;BMP280;66405;48.328;7.820;2023-06-01T01:38:10;99972.94;;;16.64
77331;BMP280;66405;48.328;7.820;2023-06-01T01:41:11;99972.41;;;16.55
77331;BMP280;66405;48.328;7.820;2023-06-01T01:44:12;99975.84;;;16.49
77331;BMP280;66405;48.328;7.820;2023-06-01T01:47:21;99969.59;;;16.43
77331;BMP280;66405;48.328;7.820;2023-06-01T01:50:28;99973.78;;;16.39
77331;BMP280;66405;48.328;7.820;2023-06-01T01:53:30;99976.75;;;16.35
77331;BMP280;66405;48.328;7.820;2023-06-01T01:56:32;99971.75;;;16.33
77331;BMP280;66405;48.328;7.820;2023-06-01T01:59:36;99977.69;;;16.32
77331;BMP280;66405;48.328;7.820;2023-06-01T02:02:37;99968.72;;;16.26
77331;BMP280;66405;48.328;7.820;2023-06-01T02:05:37;99967.19;;;16.19
77331;BMP280;66405;48.328;7.820;2023-06-01T02:08:38;99964.41;;;16.13
77331;BMP280;66405;48.328;7.820;2023-06-01T02:11:38;99962.88;;;16.07
77331;BMP280;66405;48.328;7.820;2023-06-01T02:14:39;99969.03;;;16.02
77331;BMP280;66405;48.328;7.820;2023-06-01T02:17:40;99966.25;;;15.96
77331;BMP280;66405;48.328;7.820;2023-06-01T02:20:41;99963.94;;;15.89
77331;BMP280;66405;48.328;7.820;2023-06-01T02:23:45;99964.63;;;15.83
77331;BMP280;66405;48.328;7.820;2023-06-01T02:26:46;99965.06;;;15.76
77331;BMP280;66405;48.328;7.820;2023-06-01T02:29:49;99956.06;;;15.70
77331;BMP280;66405;48.328;7.820;2023-06-01T02:32:50;99963.44;;;15.64
77331;BMP280;66405;48.328;7.820;2023-06-01T02:35:50;99964.13;;;15.59
77331;BMP280;66405;48.328;7.820;2023-06-01T02:38:51;99964.06;;;15.53
77331;BMP280;66405;48.328;7.820;2023-06-01T02:41:52;99971.97;;;15.51
77331;BMP280;66405;48.328;7.820;2023-06-01T02:44:53;99966.25;;;15.49
77331;BMP280;66405;48.328;7.820;2023-06-01T02:47:54;99967.22;;;15.46
77331;BMP280;66405;48.328;7.820;2023-06-01T02:50:55;99969.69;;;15.44
77331;BMP280;66405;48.328;7.820;2023-06-01T02:53:56;99968.16;;;15.43
77331;BMP280;66405;48.328;7.820;2023-06-01T02:56:56;99966.41;;;15.40
77331;BMP280;66405;48.328;7.820;2023-06-01T03:00:08;99964.91;;;15.39
77331;BMP280;66405;48.328;7.820;2023-06-01T03:03:16;99971.56;;;15.38
77331;BMP280;66405;48.328;7.820;2023-06-01T03:06:17;99981.72;;;15.37
77331;BMP280;66405;48.328;7.820;2023-06-01T03:09:52;99980.22;;;15.36
77331;BMP280;66405;48.328;7.820;2023-06-01T03:13:11;99973.75;;;15.34
77331;BMP280;66405;48.328;7.820;2023-06-01T03:16:12;99976.94;;;15.32
77331;BMP280;66405;48.328;7.820;2023-06-01T03:19:18;99980.66;;;15.29
77331;BMP280;66405;48.328;7.820;2023-06-01T03:22:22;99976.91;;;15.26
77331;BMP280;66405;48.328;7.820;2023-06-01T03:25:22;99982.34;;;15.26
77331;BMP280;66405;48.328;7.820;2023-06-01T03:28:25;99976.59;;;15.24
77331;BMP280;66405;48.328;7.820;2023-06-01T03:31:26;99977.81;;;15.23
77331;BMP280;66405;48.328;7.820;2023-06-01T03:34:29;99980.00;;;15.19
77331;BMP280;66405;48.328;7.820;2023-06-01T03:37:37;99990.16;;;15.19
77331;BMP280;66405;48.328;7.820;2023-06-01T03:40:38;99981.72;;;15.17
77331;BMP280;66405;48.328;7.820;2023-06-01T03:43:39;99988.38;;;15.16
77331;BMP280;66405;48.328;7.820;2023-06-01T03:46:41;99991.28;;;15.12
77331;BMP280;66405;48.328;7.820;2023-06-01T03:49:42;99997.47;;;15.12
77331;BMP280;66405;48.328;7.820;2023-06-01T03:52:45;99998.97;;;15.13
77331;BMP280;66405;48.328;7.820;2023-06-01T03:55:46;100002.47;;;15.14
77331;BMP280;66405;48.328;7.820;2023-06-01T03:59:08;100008.94;;;15.17
77331;BMP280;66405;48.328;7.820;2023-06-01T04:02:12;100007.97;;;15.20
77331;BMP280;66405;48.328;7.820;2023-06-01T04:05:15;100009.00;;;15.22
77331;BMP280;66405;48.328;7.820;2023-06-01T04:08:17;100008.50;;;15.24
77331;BMP280;66405;48.328;7.820;2023-06-01T04:11:21;100014.25;;;15.26
77331;BMP280;66405;48.328;7.820;2023-06-01T04:14:26;100015.53;;;15.30
77331;BMP280;66405;48.328;7.820;2023-06-01T04:17:27;100013.84;;;15.33
77331;BMP280;66405;48.328;7.820;2023-06-01T04:20:28;100018.34;;;15.36
77331;BMP280;66405;48.328;7.820;2023-06-01T04:23:30;100018.91;;;15.40
77331;BMP280;66405;48.328;7.820;2023-06-01T04:26:31;100017.47;;;15.45
77331;BMP280;66405;48.328;7.820;2023-06-01T04:29:32;100017.06;;;15.52
77331;BMP280;66405;48.328;7.820;2023-06-01T04:32:36;100017.13;;;15.58
77331;BMP280;66405;48.328;7.820;2023-06-01T04:35:38;100015.97;;;15.64
77331;BMP280;66405;48.328;7.820;2023-06-01T04:38:40;100019.47;;;15.71
77331;BMP280;66405;48.328;7.820;2023-06-01T04:41:42;100022.56;;;15.78
77331;BMP280;66405;48.328;7.820;2023-06-01T04:44:43;100026.34;;;15.87
77331;BMP280;66405;48.328;7.820;2023-06-01T04:47:45;100027.44;;;15.95
77331;BMP280;66405;48.328;7.820;2023-06-01T04:50:56;100027.06;;;16.08
77331;BMP280;66405;48.328;7.820;2023-06-01T04:53:58;100026.41;;;16.18
77331;BMP280;66405;48.328;7.820;2023-06-01T04:56:59;100023.06;;;16.29
77331;BMP280;66405;48.328;7.820;2023-06-01T05:00:03;100027.34;;;16.42
77331;BMP280;66405;48.328;7.820;2023-06-01T05:03:10;100023.03;;;16.56
77331;BMP280;66405;48.328;7.820;2023-06-01T05:06:13;100026.06;;;16.69
77331;BMP280;66405;48.328;7.820;2023-06-01T05:09:17;100033.38;;;16.83
77331;BMP280;66405;48.328;7.820;2023-06-01T05:12:20;100029.00;;;16.97
77331;BMP280;66405;48.328;7.820;2023-06-01T05:15:21;100039.50;;;17.10
77331;BMP280;66405;48.328;7.820;2023-06-01T05:18:22;100037.31;;;17.26
77331;BMP280;66405;48.328;7.820;2023-06-01T05:21:26;100032.16;;;17.39
77331;BMP280;66405;48.328;7.820;2023-06-01T05:24:28;100037.44;;;17.54
77331;BMP280;66405;48.328;7.820;2023-06-01T05:27:31;100032.75;;;17.66
77331;BMP280;66405;48.328;7.820;2023-06-01T05:30:31;100038.00;;;17.81
77331;BMP280;66405;48.328;7.820;2023-06-01T05:33:35;100037.53;;;17.93
77331;BMP280;66405;48.328;7.820;2023-06-01T05:36:38;100044.00;;;18.07
77331;BMP280;66405;48.328;7.820;2023-06-01T05:39:40;100044.28;;;18.21
77331;BMP280;66405;48.328;7.820;2023-06-01T05:42:41;100039.31;;;18.31
77331;BMP280;66405;48.328;7.820;2023-06-01T05:45:42;100046.53;;;18.39
77331;BMP280;66405;48.328;7.820;2023-06-01T05:48:43;100046.53;;;18.45
77331;BMP280;66405;48.328;7.820;2023-06-01T05:51:46;100044.50;;;18.51
77331;BMP280;66405;48.328;7.820;2023-06-01T05:54:48;100046.75;;;18.58
77331;BMP280;66405;48.328;7.820;2023-06-01T05:57:49;100044.00;;;18.64
77331;BMP280;66405;48.328;7.820;2023-06-01T06:00:50;100039.03;;;18.74
77331;BMP280;66405;48.328;7.820;2023-06-01T06:03:51;100049.44;;;18.81
77331;BMP280;66405;48.328;7.820;2023-06-01T06:06:52;100041.69;;;18.91
77331;BMP280;66405;48.328;7.820;2023-06-01T06:09:56;100048.38;;;19.01
77331;BMP280;66405;48.328;7.820;2023-06-01T06:12:59;100058.06;;;19.13
77331;BMP280;66405;48.328;7.820;2023-06-01T06:16:00;100052.53;;;19.30
77331;BMP280;66405;48.328;7.820;2023-06-01T06:19:00;100048.69;;;19.50
77331;BMP280;66405;48.328;7.820;2023-06-01T06:22:01;100047.88;;;19.67
77331;BMP280;66405;48.328;7.820;2023-06-01T06:25:02;100056.25;;;19.80
77331;BMP280;66405;48.328;7.820;2023-06-01T06:28:06;100050.47;;;19.89
77331;BMP280;66405;48.328;7.820;2023-06-01T06:31:06;100052.59;;;20.02
77331;BMP280;66405;48.328;7.820;2023-06-01T06:34:07;100052.75;;;20.16
77331;BMP280;66405;48.328;7.820;2023-06-01T06:37:09;100042.94;;;20.26
77331;BMP280;66405;48.328;7.820;2023-06-01T06:40:12;100045.38;;;20.30
77331;BMP280;66405;48.328;7.820;2023-06-01T06:43:13;100040.31;;;20.39
77331;BMP280;66405;48.328;7.820;2023-06-01T06:46:17;100051.13;;;20.56
77331;BMP280;66405;48.328;7.820;2023-06-01T06:49:20;100057.09;;;20.60
77331;BMP280;66405;48.328;7.820;2023-06-01T06:52:22;100061.56;;;20.63
77331;BMP280;66405;48.328;7.820;2023-06-01T06:55:25;100060.94;;;20.76
77331;BMP280;66405;48.328;7.820;2023-06-01T06:58:27;100062.81;;;20.87
77331;BMP280;66405;48.328;7.820;2023-06-01T07:01:29;100057.91;;;20.99
77331;BMP280;66405;48.328;7.820;2023-06-01T07:04:30;100059.56;;;21.08
77331;BMP280;66405;48.328;7.820;2023-06-01T07:07:35;100063.00;;;21.14
77331;BMP280;66405;48.328;7.820;2023-06-01T07:10:37;100065.06;;;21.27
77331;BMP280;66405;48.328;7.820;2023-06-01T07:13:40;100061.38;;;21.43
77331;BMP280;66405;48.328;7.820;2023-06-01T07:16:42;100059.63;;;21.59
77331;BMP280;66405;48.328;7.820;2023-06-01T07:19:42;100059.03;;;21.66
77331;BMP280;66405;48.328;7.820;2023-06-01T07:22:45;100057.09;;;21.80
77331;BMP280;66405;48.328;7.820;2023-06-01T07:25:47;100053.72;;;21.87
77331;BMP280;66405;48.328;7.820;2023-06-01T07:28:48;100046.50;;;21.84
77331;BMP280;66405;48.328;7.820;2023-06-01T07:31:50;100057.03;;;21.99
77331;BMP280;66405;48.328;7.820;2023-06-01T07:34:52;100055.56;;;22.12
77331;BMP280;66405;48.328;7.820;2023-06-01T07:37:53;100055.19;;;22.21
77331;BMP280;66405;48.328;7.820;2023-06-01T07:40:54;100055.59;;;22.38
77331;BMP280;66405;48.328;7.820;2023-06-01T07:43:54;100053.38;;;22.50
77331;BMP280;66405;48.328;7.820;2023-06-01T07:46:57;100057.53;;;22.43
77331;BMP280;66405;48.328;7.820;2023-06-01T07:49:57;100052.56;;;22.55
77331;BMP280;66405;48.328;7.820;2023-06-01T07:52:58;100043.22;;;22.72
77331;BMP280;66405;48.328;7.820;2023-06-01T07:55:59;100053.41;;;22.77
77331;BMP280;66405;48.328;7.820;2023-06-01T07:59:02;100043.44;;;22.87
77331;BMP280;66405;48.328;7.820;2023-06-01T08:02:03;100036.41;;;22.99
77331;BMP280;66405;48.328;7.820;2023-06-01T08:05:04;100043.75;;;23.18
77331;BMP280;66405;48.328;7.820;2023-06-01T08:08:05;100042.13;;;23.36
77331;BMP280;66405;48.328;7.820;2023-06-01T08:11:07;100041.91;;;23.55
77331;BMP280;66405;48.328;7.820;2023-06-01T08:14:09;100039.19;;;23.76
77331;BMP280;66405;48.328;7.820;2023-06-01T08:17:11;100042.25;;;23.93
77331;BMP280;66405;48.328;7.820;2023-06-01T08:20:13;100033.13;;;24.06
77331;BMP280;66405;48.328;7.820;2023-06-01T08:23:14;100038.72;;;24.14
77331;BMP280;66405;48.328;7.820;2023-06-01T08:26:18;100036.13;;;24.08
77331;BMP280;66405;48.328;7.820;2023-06-01T08:29:22;100027.91;;;24.24
77331;BMP280;66405;48.328;7.820;2023-06-01T08:32:22;100039.06;;;24.39
77331;BMP280;66405;48.328;7.820;2023-06-01T08:35:23;100038.22;;;24.52
77331;BMP280;66405;48.328;7.820;2023-06-01T08:38:25;100035.16;;;24.71
77331;BMP280;66405;48.328;7.820;2023-06-01T08:42:09;100033.19;;;24.95
77331;BMP280;66405;48.328;7.820;2023-06-01T08:45:13;100026.03;;;25.15
77331;BMP280;66405;48.328;7.820;2023-06-01T08:48:17;100021.66;;;25.27
77331;BMP280;66405;48.328;7.820;2023-06-01T08:51:25;100022.22;;;25.41
77331;BMP280;66405;48.328;7.820;2023-06-01T08:54:27;100014.47;;;25.55
77331;BMP280;66405;48.328;7.820;2023-06-01T08:57:31;100021.13;;;25.59
77331;BMP280;66405;48.328;7.820;2023-06-01T09:00:32;100009.13;;;25.72
77331;BMP280;66405;48.328;7.820;2023-06-01T09:03:36;100008.34;;;25.95
77331;BMP280;66405;48.328;7.820;2023-06-01T09:06:42;100004.59;;;26.15
77331;BMP280;66405;48.328;7.820;2023-06-01T09:09:43;100008.22;;;26.33
77331;BMP280;66405;48.328;7.820;2023-06-01T09:12:53;99999.69;;;26.47
77331;BMP280;66405;48.328;7.820;2023-06-01T09:15:57;100006.09;;;26.65
77331;BMP280;66405;48.328;7.820;2023-06-01T09:18:57;99996.38;;;26.81
77331;BMP280;66405;48.328;7.820;2023-06-01T09:21:59;100000.84;;;27.02
77331;BMP280;66405;48.328;7.820;2023-06-01T09:25:01;99998.41;;;27.06
77331;BMP280;66405;48.328;7.820;2023-06-01T09:28:02;99998.72;;;27.18
77331;BMP280;66405;48.328;7.820;2023-06-01T09:31:03;99980.06;;;27.36
77331;BMP280;66405;48.328;7.820;2023-06-01T09:34:06;99978.34;;;27.58
77331;BMP280;66405;48.328;7.820;2023-06-01T09:37:07;99974.13;;;27.74
77331;BMP280;66405;48.328;7.820;2023-06-01T09:40:18;99978.22;;;27.91
77331;BMP280;66405;48.328;7.820;2023-06-01T09:43:22;99980.59;;;27.94
77331;BMP280;66405;48.328;7.820;2023-06-01T09:46:22;99976.63;;;28.15
77331;BMP280;66405;48.328;7.820;2023-06-01T09:49:28;99966.94;;;28.33
77331;BMP280;66405;48.328;7.820;2023-06-01T09:52:29;99964.00;;;28.31
77331;BMP280;66405;48.328;7.820;2023-06-01T09:55:36;99967.78;;;28.53
77331;BMP280;66405;48.328;7.820;2023-06-01T09:59:01;99966.13;;;28.77
77331;BMP280;66405;48.328;7.820;2023-06-01T10:02:03;99962.34;;;28.92
77331;BMP280;66405;48.328;7.820;2023-06-01T10:05:04;99959.63;;;29.02
77331;BMP280;66405;48.328;7.820;2023-06-01T10:08:06;99961.13;;;29.22
77331;BMP280;66405;48.328;7.820;2023-06-01T10:11:09;99962.91;;;29.37
77331;BMP280;66405;48.328;7.820;2023-06-01T10:14:12;99952.50;;;29.57
77331;BMP280;66405;48.328;7.820;2023-06-01T10:17:13;99956.75;;;29.78
77331;BMP280;66405;48.328;7.820;2023-06-01T10:20:16;99958.50;;;29.93
77331;BMP280;66405;48.328;7.820;2023-06-01T10:23:17;99952.72;;;30.10
77331;BMP280;66405;48.328;7.820;2023-06-01T10:26:21;99943.31;;;30.15
77331;BMP280;66405;48.328;7.820;2023-06-01T10:29:23;99948.13;;;30.25
77331;BMP280;66405;48.328;7.820;2023-06-01T10:38:41;99939.13;;;30.98
77331;BMP280;66405;48.328;7.820;2023-06-01T10:41:42;99938.72;;;30.92
77331;BMP280;66405;48.328;7.820;2023-06-01T10:47:44;99929.50;;;30.90
77331;BMP280;66405;48.328;7.820;2023-06-01T10:51:16;99934.91;;;30.88
77331;BMP280;66405;48.328;7.820;2023-06-01T10:54:30;99937.38;;;30.93
77331;BMP280;66405;48.328;7.820;2023-06-01T10:57:31;99929.94;;;30.86
77331;BMP280;66405;48.328;7.820;2023-06-01T11:00:38;99920.78;;;31.17
77331;BMP280;66405;48.328;7.820;2023-06-01T11:03:44;99915.69;;;31.58
77331;BMP280;66405;48.328;7.820;2023-06-01T11:06:45;99918.31;;;31.90
77331;BMP280;66405;48.328;7.820;2023-06-01T11:09:46;99912.03;;;32.25
77331;BMP280;66405;48.328;7.820;2023-06-01T11:13:14;99907.50;;;32.55
77331;BMP280;66405;48.328;7.820;2023-06-01T11:19:26;99905.38;;;32.79
77331;BMP280;66405;48.328;7.820;2023-06-01T11:22:34;99904.66;;;33.04
77331;BMP280;66405;48.328;7.820;2023-06-01T11:25:36;99904.50;;;33.14
77331;BMP280;66405;48.328;7.820;2023-06-01T11:28:39;99894.31;;;33.32
77331;BMP280;66405;48.328;7.820;2023-06-01T11:31:45;99887.84;;;33.69
77331;BMP280;66405;48.328;7.820;2023-06-01T11:34:46;99888.31;;;34.05
77331;BMP280;66405;48.328;7.820;2023-06-01T11:37:55;99886.66;;;34.14
77331;BMP280;66405;48.328;7.820;2023-06-01T11:41:00;99878.84;;;34.26
77331;BMP280;66405;48.328;7.820;2023-06-01T11:44:01;99875.78;;;34.50
77331;BMP280;66405;48.328;7.820;2023-06-01T11:47:03;99875.31;;;34.69
77331;BMP280;66405;48.328;7.820;2023-06-01T11:50:05;99871.34;;;34.74
77331;BMP280;66405;48.328;7.820;2023-06-01T11:53:08;99856.94;;;34.66
77331;BMP280;66405;48.328;7.820;2023-06-01T11:56:12;99868.25;;;34.68
77331;BMP280;66405;48.328;7.820;2023-06-01T11:59:13;99858.00;;;35.05
77331;BMP280;66405;48.328;7.820;2023-06-01T12:02:21;99861.72;;;35.09
77331;BMP280;66405;48.328;7.820;2023-06-01T12:05:22;99862.13;;;35.33
77331;BMP280;66405;48.328;7.820;2023-06-01T12:08:24;99863.13;;;35.56
77331;BMP280;66405;48.328;7.820;2023-06-01T12:11:26;99853.44;;;35.43
77331;BMP280;66405;48.328;7.820;2023-06-01T12:14:27;99853.97;;;35.71
77331;BMP280;66405;48.328;7.820;2023-06-01T12:20:49;99855.00;;;36.14
77331;BMP280;66405;48.328;7.820;2023-06-01T12:23:50;99846.16;;;36.37
77331;BMP280;66405;48.328;7.820;2023-06-01T12:26:54;99853.97;;;36.77
77331;BMP280;66405;48.328;7.820;2023-06-01T12:29:55;99839.69;;;37.09
77331;BMP280;66405;48.328;7.820;2023-06-01T12:32:58;99840.06;;;37.39
77331;BMP280;66405;48.328;7.820;2023-06-01T12:36:05;99839.31;;;37.58
77331;BMP280;66405;48.328;7.820;2023-06-01T12:39:06;99837.19;;;37.79
77331;BMP280;66405;48.328;7.820;2023-06-01T12:42:07;99836.97;;;37.93
77331;BMP280;66405;48.328;7.820;2023-06-01T12:45:09;99830.53;;;37.90
77331;BMP280;66405;48.328;7.820;2023-06-01T12:48:29;99830.69;;;37.74
77331;BMP280;66405;48.328;7.820;2023-06-01T12:51:30;99826.94;;;37.67
77331;BMP280;66405;48.328;7.820;2023-06-01T12:54:31;99828.66;;;37.77
77331;BMP280;66405;48.328;7.820;2023-06-01T12:57:32;99824.47;;;37.78
77331;BMP280;66405;48.328;7.820;2023-06-01T13:00:34;99820.50;;;37.85
77331;BMP280;66405;48.328;7.820;2023-06-01T13:03:34;99823.91;;;38.03
77331;BMP280;66405;48.328;7.820;2023-06-01T13:06:35;99821.94;;;38.08
77331;BMP280;66405;48.328;7.820;2023-06-01T13:09:37;99813.16;;;38.20
77331;BMP280;66405;48.328;7.820;2023-06-01T13:12:38;99814.44;;;38.39
77331;BMP280;66405;48.328;7.820;2023-06-01T13:15:41;99809.03;;;38.71
77331;BMP280;66405;48.328;7.820;2023-06-01T13:18:44;99809.81;;;39.00
77331;BMP280;66405;48.328;7.820;2023-06-01T13:21:47;99812.69;;;39.28
77331;BMP280;66405;48.328;7.820;2023-06-01T13:24:50;99805.41;;;39.47
77331;BMP280;66405;48.328;7.820;2023-06-01T13:27:51;99811.56;;;39.67
77331;BMP280;66405;48.328;7.820;2023-06-01T13:30:51;99798.88;;;39.68
77331;BMP280;66405;48.328;7.820;2023-06-01T13:33:52;99804.06;;;39.78
77331;BMP280;66405;48.328;7.820;2023-06-01T13:36:54;99797.44;;;39.67
77331;BMP280;66405;48.328;7.820;2023-06-01T13:39:54;99795.44;;;39.44
77331;BMP280;66405;48.328;7.820;2023-06-01T13:42:55;99792.16;;;39.25
77331;BMP280;66405;48.328;7.820;2023-06-01T13:45:58;99794.16;;;39.49
77331;BMP280;66405;48.328;7.820;2023-06-01T13:48:59;99777.44;;;39.89
77331;BMP280;66405;48.328;7.820;2023-06-01T13:52:00;99775.81;;;40.12
77331;BMP280;66405;48.328;7.820;2023-06-01T13:55:03;99774.50;;;40.50
77331;BMP280;66405;48.328;7.820;2023-06-01T13:58:04;99768.63;;;40.76
77331;BMP280;66405;48.328;7.820;2023-06-01T14:01:05;99768.38;;;41.00
77331;BMP280;66405;48.328;7.820;2023-06-01T14:04:06;99770.03;;;41.15
77331;BMP280;66405;48.328;7.820;2023-06-01T14:07:10;99772.63;;;41.41
77331;BMP280;66405;48.328;7.820;2023-06-01T14:10:13;99767.28;;;41.64
77331;BMP280;66405;48.328;7.820;2023-06-01T14:13:16;99761.97;;;41.88
77331;BMP280;66405;48.328;7.820;2023-06-01T14:16:20;99756.94;;;41.85
77331;BMP280;66405;48.328;7.820;2023-06-01T14:19:21;99759.41;;;42.09
77331;BMP280;66405;48.328;7.820;2023-06-01T14:22:22;99757.50;;;42.26
77331;BMP280;66405;48.328;7.820;2023-06-01T14:25:23;99753.97;;;42.31
77331;BMP280;66405;48.328;7.820;2023-06-01T14:28:24;99745.53;;;42.37
77331;BMP280;66405;48.328;7.820;2023-06-01T14:31:24;99745.69;;;42.50
77331;BMP280;66405;48.328;7.820;2023-06-01T14:34:25;99736.50;;;42.55
77331;BMP280;66405;48.328;7.820;2023-06-01T14:37:26;99737.38;;;42.68
77331;BMP280;66405;48.328;7.820;2023-06-01T14:40:27;99745.28;;;42.80
77331;BMP280;66405;48.328;7.820;2023-06-01T14:43:28;99730.44;;;44.12
77331;BMP280;66405;48.328;7.820;2023-06-01T14:46:30;99728.44;;;46.48
77331;BMP280;66405;48.328;7.820;2023-06-01T14:49:30;99734.75;;;48.36
77331;BMP280;66405;48.328;7.820;2023-06-01T14:52:31;99723.22;;;49.83
77331;BMP280;66405;48.328;7.820;2023-06-01T14:55:35;99713.38;;;50.87
77331;BMP280;66405;48.328;7.820;2023-06-01T14:58:36;99717.88;;;51.30
77331;BMP280;66405;48.328;7.820;2023-06-01T15:01:38;99710.28;;;51.43
77331;BMP280;66405;48.328;7.820;2023-06-01T15:04:41;99716.44;;;51.97
77331;BMP280;66405;48.328;7.820;2023-06-01T15:07:42;99705.38;;;52.46
77331;BMP280;66405;48.328;7.820;2023-06-01T15:10:44;99704.06;;;53.21
77331;BMP280;66405;48.328;7.820;2023-06-01T15:13:46;99702.66;;;53.89
77331;BMP280;66405;48.328;7.820;2023-06-01T15:16:47;99699.72;;;54.71
77331;BMP280;66405;48.328;7.820;2023-06-01T15:19:49;99697.59;;;55.16
77331;BMP280;66405;48.328;7.820;2023-06-01T15:22:50;99698.19;;;55.90
77331;BMP280;66405;48.328;7.820;2023-06-01T15:25:51;99686.19;;;56.26
77331;BMP280;66405;48.328;7.820;2023-06-01T15:28:51;99692.25;;;56.07
77331;BMP280;66405;48.328;7.820;2023-06-01T15:31:52;99689.28;;;55.95
77331;BMP280;66405;48.328;7.820;2023-06-01T15:34:53;99683.22;;;55.86
77331;BMP280;66405;48.328;7.820;2023-06-01T15:37:53;99687.88;;;55.94
77331;BMP280;66405;48.328;7.820;2023-06-01T15:40:56;99688.69;;;55.64
77331;BMP280;66405;48.328;7.820;2023-06-01T15:43:56;99687.72;;;55.40
77331;BMP280;66405;48.328;7.820;2023-06-01T15:46:59;99682.13;;;55.36
77331;BMP280;66405;48.328;7.820;2023-06-01T15:50:01;99676.56;;;55.03
77331;BMP280;66405;48.328;7.820;2023-06-01T15:53:04;99676.53;;;54.88
77331;BMP280;66405;48.328;7.820;2023-06-01T15:56:04;99674.09;;;54.78
77331;BMP280;66405;48.328;7.820;2023-06-01T15:59:06;99671.03;;;54.50
77331;BMP280;66405;48.328;7.820;2023-06-01T16:02:06;99675.75;;;54.26
77331;BMP280;66405;48.328;7.820;2023-06-01T16:05:08;99668.72;;;54.38
77331;BMP280;66405;48.328;7.820;2023-06-01T16:08:09;99664.50;;;54.66
77331;BMP280;66405;48.328;7.820;2023-06-01T16:11:10;99651.97;;;54.72
77331;BMP280;66405;48.328;7.820;2023-06-01T16:14:10;99651.34;;;54.55
77331;BMP280;66405;48.328;7.820;2023-06-01T16:17:11;99654.56;;;54.32
77331;BMP280;66405;48.328;7.820;2023-06-01T16:20:13;99650.75;;;53.87
77331;BMP280;66405;48.328;7.820;2023-06-01T16:23:14;99637.97;;;53.48
77331;BMP280;66405;48.328;7.820;2023-06-01T16:26:15;99648.75;;;53.14
77331;BMP280;66405;48.328;7.820;2023-06-01T16:29:16;99652.09;;;53.02
77331;BMP280;66405;48.328;7.820;2023-06-01T16:32:17;99636.13;;;53.05
77331;BMP280;66405;48.328;7.820;2023-06-01T16:35:17;99640.72;;;52.60
77331;BMP280;66405;48.328;7.820;2023-06-01T16:38:18;99634.44;;;51.73
77331;BMP280;66405;48.328;7.820;2023-06-01T16:41:19;99639.22;;;51.37
77331;BMP280;66405;48.328;7.820;2023-06-01T16:44:22;99631.84;;;51.42
77331;BMP280;66405;48.328;7.820;2023-06-01T16:47:23;99631.25;;;51.61
77331;BMP280;66405;48.328;7.820;2023-06-01T16:50:23;99635.38;;;51.66
77331;BMP280;66405;48.328;7.820;2023-06-01T16:53:24;99638.00;;;51.74
77331;BMP280;66405;48.328;7.820;2023-06-01T16:56:25;99633.03;;;51.93
77331;BMP280;66405;48.328;7.820;2023-06-01T16:59:27;99642.78;;;51.82
77331;BMP280;66405;48.328;7.820;2023-06-01T17:02:27;99637.94;;;51.97
77331;BMP280;66405;48.328;7.820;2023-06-01T17:05:28;99637.56;;;52.28
77331;BMP280;66405;48.328;7.820;2023-06-01T17:08:33;99634.31;;;52.38
77331;BMP280;66405;48.328;7.820;2023-06-01T17:11:34;99637.78;;;52.22
77331;BMP280;66405;48.328;7.820;2023-06-01T17:14:35;99635.75;;;51.97
77331;BMP280;66405;48.328;7.820;2023-06-01T17:17:36;99635.94;;;51.49
77331;BMP280;66405;48.328;7.820;2023-06-01T17:20:38;99624.09;;;51.60
77331;BMP280;66405;48.328;7.820;2023-06-01T17:23:40;99626.94;;;51.16
77331;BMP280;66405;48.328;7.820;2023-06-01T17:26:41;99629.03;;;50.69
77331;BMP280;66405;48.328;7.820;2023-06-01T17:29:42;99624.78;;;50.16
77331;BMP280;66405;48.328;7.820;2023-06-01T17:32:42;99627.69;;;49.56
77331;BMP280;66405;48.328;7.820;2023-06-01T17:35:43;99629.94;;;48.50
77331;BMP280;66405;48.328;7.820;2023-06-01T17:38:44;99620.09;;;46.94
77331;BMP280;66405;48.328;7.820;2023-06-01T17:41:45;99630.03;;;44.99
77331;BMP280;66405;48.328;7.820;2023-06-01T17:44:46;99632.72;;;43.42
77331;BMP280;66405;48.328;7.820;2023-06-01T17:47:47;99631.06;;;42.21
77331;BMP280;66405;48.328;7.820;2023-06-01T17:50:48;99627.41;;;41.49
77331;BMP280;66405;48.328;7.820;2023-06-01T17:53:49;99630.16;;;40.94